PWSweather.com
Personal Weather Stations
Station Observations
CAMPIGIANO
Campi Bisenzio, FirenzeIT

Campi BisenzioFirenzeIT

Lat: 43.8175012, Lon: 11.1391085

Elevation: 106

Station Type: LaCrosse WS2350

Latest ConditionsUpdated 6:30:03 AM GMT+01:01 Wednesday, Jun 29, 2016
Currently Today's Max Today's Min Today's Average
Temperature 71.6°F22.0°C 72.5°F22.5°C 66.7°F19.3°C 68.8°F20.4°C
Dew Point 62.5°F16.9°C 62.5°F16.9°C 58.9°F14.9°C 59.8°F15.4°C
Winds Calm Calm Calm ECalm E - Calm Calm
Wind Gusts -- -- - -
Humidity 73% 79% 65% 73%
Pressure 29.96 in1014.6 mb 29.96 in1014.6 mb 29.94 in1013.9 mb -
Hour Temp Dew Point Humidity Winds Wind Gusts Pressure Precip Precip Rate Daily Precip Total
06:30 AM 71.6°F22.0°C 62.5°F16.9°C 73% Calm Calm -- 29.96 in1014.6 mb - 0.00 in0.0 mm 0.00 in0.0 mm
06:15 AM 70.0°F21.1°C 62.1°F16.7°C 76% Calm Calm -- 29.96 in1014.6 mb - 0.00 in0.0 mm 0.00 in0.0 mm
06:00 AM 67.8°F19.9°C 60.7°F15.9°C 78% Calm Calm -- 29.95 in1014.2 mb - 0.00 in0.0 mm 0.00 in0.0 mm
05:45 AM 67.1°F19.5°C 60.0°F15.6°C 78% Calm Calm -- 29.95 in1014.2 mb - 0.00 in0.0 mm 0.00 in0.0 mm
05:30 AM 67.6°F19.8°C 60.5°F15.8°C 78% Calm Calm -- 29.95 in1014.2 mb - 0.00 in0.0 mm 0.00 in0.0 mm
05:15 AM 67.3°F19.6°C 60.2°F15.7°C 78% Calm Calm -- 29.94 in1013.9 mb - 0.00 in0.0 mm 0.00 in0.0 mm
05:00 AM 66.9°F19.4°C 59.8°F15.4°C 78% Calm Calm -- 29.94 in1013.9 mb - 0.00 in0.0 mm 0.00 in0.0 mm
04:45 AM 66.7°F19.3°C 60.0°F15.6°C 79% Calm Calm -- 29.94 in1013.9 mb - 0.00 in0.0 mm 0.00 in0.0 mm
04:30 AM 66.7°F19.3°C 59.7°F15.4°C 78% Calm Calm -- 29.94 in1013.9 mb - 0.00 in0.0 mm 0.00 in0.0 mm
04:15 AM 67.1°F19.5°C 59.6°F15.3°C 77% Calm Calm -- 29.94 in1013.9 mb - 0.00 in0.0 mm 0.00 in0.0 mm
04:00 AM 67.1°F19.5°C 59.3°F15.2°C 76% Calm Calm -- 29.94 in1013.9 mb - 0.00 in0.0 mm 0.00 in0.0 mm
03:45 AM 66.7°F19.3°C 58.9°F14.9°C 76% Calm Calm -- 29.94 in1013.9 mb - 0.00 in0.0 mm 0.00 in0.0 mm
03:30 AM 66.7°F19.3°C 58.9°F14.9°C 76% Calm Calm -- 29.94 in1013.9 mb - 0.00 in0.0 mm 0.00 in0.0 mm
03:15 AM 67.3°F19.6°C 59.1°F15.1°C 75% Calm Calm -- 29.94 in1013.9 mb - 0.00 in0.0 mm 0.00 in0.0 mm
03:00 AM 67.8°F19.9°C 59.6°F15.3°C 75% Calm Calm -- 29.94 in1013.9 mb - 0.00 in0.0 mm 0.00 in0.0 mm
02:45 AM 68.2°F20.1°C 59.6°F15.3°C 74% Calm Calm -- 29.94 in1013.9 mb - 0.00 in0.0 mm 0.00 in0.0 mm
02:30 AM 68.9°F20.5°C 59.5°F15.3°C 72% Calm Calm -- 29.95 in1014.2 mb - 0.00 in0.0 mm 0.00 in0.0 mm
02:15 AM 69.0°F20.6°C 59.6°F15.3°C 72% Calm Calm -- 29.95 in1014.2 mb - 0.00 in0.0 mm 0.00 in0.0 mm
02:00 AM 69.1°F20.6°C 59.7°F15.4°C 72% Calm Calm -- 29.95 in1014.2 mb - 0.00 in0.0 mm 0.00 in0.0 mm
01:45 AM 69.6°F20.9°C 59.4°F15.2°C 70% Calm Calm -- 29.95 in1014.2 mb - 0.00 in0.0 mm 0.00 in0.0 mm
01:30 AM 70.0°F21.1°C 59.3°F15.2°C 69% Calm Calm -- 29.95 in1014.2 mb - 0.00 in0.0 mm 0.00 in0.0 mm
01:15 AM 70.5°F21.4°C 59.0°F15.0°C 67% Calm Calm -- 29.95 in1014.2 mb - 0.00 in0.0 mm 0.00 in0.0 mm
01:00 AM 70.5°F21.4°C 59.0°F15.0°C 67% Calm Calm -- 29.95 in1014.2 mb - 0.00 in0.0 mm 0.00 in0.0 mm
12:45 AM 70.9°F21.6°C 59.0°F15.0°C 66% Calm Calm -- 29.95 in1014.2 mb - 0.00 in0.0 mm 0.00 in0.0 mm
12:30 AM 71.8°F22.1°C 59.4°F15.2°C 65% Calm Calm -- 29.95 in1014.2 mb - 0.00 in0.0 mm 0.00 in0.0 mm
12:15 AM 72.1°F22.3°C 60.2°F15.7°C 66% Calm Calm -- 29.95 in1014.2 mb - 0.00 in0.0 mm 0.00 in0.0 mm
12:00 AM 72.5°F22.5°C 60.1°F15.6°C 65% Calm Calm -- 29.95 in1014.2 mb - 0.00 in0.0 mm 0.00 in0.0 mm